Terminal Aerodrome Forecast
Issued by NWS

Home | Current Version | Previous Version | Text Only | Print | Product List | Glossary On
Versions: 1 2 3 4 5 6 7 8 9 10 11 12 13 14 15 16 17 18 19 20 21 22 23 24 25 26 27 28 29 30 31 32 33 34 35 36 37 38 39 40 41 42 43 44
000
FTUS46 KMTR 101310 AAA
TAFSNS
TAF AMD
KSNS 101310Z 1013/1112 12009KT P6SM FEW010 BKN200
      TEMPO 1013/1015 BKN012
     FM101800 12007KT P6SM FEW025 SCT200
     FM102300 28005KT P6SM FEW025 BKN050
     FM110200 VRB03KT P6SM BKN030 OVC050
     FM110900 12006KT P6SM VCSH OVC025=

USA.gov is the U.S. government's official web portal to all federal, state and local government web resources and services.